sensor_id;sensor_type;location;lat;lon;timestamp;temperature;humidity
76239;SHT30;65043;48.392;-4.472;2023-09-18T00:02:20;20.87;72.97
76239;SHT30;65043;48.392;-4.472;2023-09-18T00:04:46;20.91;72.96
76239;SHT30;65043;48.392;-4.472;2023-09-18T00:07:11;20.87;73.15
76239;SHT30;65043;48.392;-4.472;2023-09-18T00:09:37;20.92;73.10
76239;SHT30;65043;48.392;-4.472;2023-09-18T00:12:02;20.92;73.20
76239;SHT30;65043;48.392;-4.472;2023-09-18T00:14:28;20.94;73.15
76239;SHT30;65043;48.392;-4.472;2023-09-18T00:16:56;20.98;73.18
76239;SHT30;65043;48.392;-4.472;2023-09-18T00:19:22;20.96;73.23
76239;SHT30;65043;48.392;-4.472;2023-09-18T00:21:48;20.99;73.25
76239;SHT30;65043;48.392;-4.472;2023-09-18T00:24:14;20.96;73.53
76239;SHT30;65043;48.392;-4.472;2023-09-18T00:26:39;20.94;73.79
76239;SHT30;65043;48.392;-4.472;2023-09-18T00:29:05;20.95;73.99
76239;SHT30;65043;48.392;-4.472;2023-09-18T00:31:30;20.95;74.10
76239;SHT30;65043;48.392;-4.472;2023-09-18T00:33:56;20.99;74.27
76239;SHT30;65043;48.392;-4.472;2023-09-18T00:36:21;20.99;74.19
76239;SHT30;65043;48.392;-4.472;2023-09-18T00:38:47;20.98;74.49
76239;SHT30;65043;48.392;-4.472;2023-09-18T00:41:13;20.98;74.68
76239;SHT30;65043;48.392;-4.472;2023-09-18T00:43:38;21.01;74.58
76239;SHT30;65043;48.392;-4.472;2023-09-18T00:46:03;21.06;74.60
76239;SHT30;65043;48.392;-4.472;2023-09-18T00:48:29;21.09;74.62
76239;SHT30;65043;48.392;-4.472;2023-09-18T00:50:55;21.04;74.76
76239;SHT30;65043;48.392;-4.472;2023-09-18T00:53:23;21.05;74.94
76239;SHT30;65043;48.392;-4.472;2023-09-18T00:55:53;21.08;74.95
76239;SHT30;65043;48.392;-4.472;2023-09-18T00:58:20;21.09;75.05
76239;SHT30;65043;48.392;-4.472;2023-09-18T01:00:46;21.08;75.19
76239;SHT30;65043;48.392;-4.472;2023-09-18T01:03:11;21.16;74.90
76239;SHT30;65043;48.392;-4.472;2023-09-18T01:05:37;21.15;74.96
76239;SHT30;65043;48.392;-4.472;2023-09-18T01:08:02;21.15;74.95
76239;SHT30;65043;48.392;-4.472;2023-09-18T01:10:46;21.18;74.92
76239;SHT30;65043;48.392;-4.472;2023-09-18T01:13:18;21.19;74.90
76239;SHT30;65043;48.392;-4.472;2023-09-18T01:15:56;21.12;74.91
76239;SHT30;65043;48.392;-4.472;2023-09-18T01:18:22;21.16;74.81
76239;SHT30;65043;48.392;-4.472;2023-09-18T01:20:48;21.16;74.97
76239;SHT30;65043;48.392;-4.472;2023-09-18T01:23:13;21.15;75.00
76239;SHT30;65043;48.392;-4.472;2023-09-18T01:25:39;21.19;75.03
76239;SHT30;65043;48.392;-4.472;2023-09-18T01:28:04;21.14;75.27
76239;SHT30;65043;48.392;-4.472;2023-09-18T01:30:30;21.12;75.35
76239;SHT30;65043;48.392;-4.472;2023-09-18T01:32:57;21.12;75.60
76239;SHT30;65043;48.392;-4.472;2023-09-18T01:35:25;21.12;75.60
76239;SHT30;65043;48.392;-4.472;2023-09-18T01:37:59;21.14;75.48
76239;SHT30;65043;48.392;-4.472;2023-09-18T01:40:26;21.11;75.56
76239;SHT30;65043;48.392;-4.472;2023-09-18T01:42:52;21.11;75.58
76239;SHT30;65043;48.392;-4.472;2023-09-18T01:45:18;21.11;75.46
76239;SHT30;65043;48.392;-4.472;2023-09-18T01:47:45;21.16;75.35
76239;SHT30;65043;48.392;-4.472;2023-09-18T01:50:10;21.16;75.35
76239;SHT30;65043;48.392;-4.472;2023-09-18T01:52:36;21.14;75.34
76239;SHT30;65043;48.392;-4.472;2023-09-18T01:55:02;21.12;75.35
76239;SHT30;65043;48.392;-4.472;2023-09-18T01:57:29;21.11;75.33
76239;SHT30;65043;48.392;-4.472;2023-09-18T01:59:55;21.11;75.44
76239;SHT30;65043;48.392;-4.472;2023-09-18T02:02:20;21.08;75.42
76239;SHT30;65043;48.392;-4.472;2023-09-18T02:04:45;21.08;75.54
76239;SHT30;65043;48.392;-4.472;2023-09-18T02:07:11;21.09;75.36
76239;SHT30;65043;48.392;-4.472;2023-09-18T02:09:36;21.11;75.39
76239;SHT30;65043;48.392;-4.472;2023-09-18T02:12:02;21.11;75.38
76239;SHT30;65043;48.392;-4.472;2023-09-18T02:14:28;21.09;75.21
76239;SHT30;65043;48.392;-4.472;2023-09-18T02:16:56;21.11;75.08
76239;SHT30;65043;48.392;-4.472;2023-09-18T02:19:21;21.05;75.19
76239;SHT30;65043;48.392;-4.472;2023-09-18T02:21:47;21.04;75.32
76239;SHT30;65043;48.392;-4.472;2023-09-18T02:24:12;20.99;75.36
76239;SHT30;65043;48.392;-4.472;2023-09-18T02:26:38;21.01;75.29
76239;SHT30;65043;48.392;-4.472;2023-09-18T02:29:07;21.01;75.04
76239;SHT30;65043;48.392;-4.472;2023-09-18T02:31:34;20.99;74.93
76239;SHT30;65043;48.392;-4.472;2023-09-18T02:33:59;20.98;74.95
76239;SHT30;65043;48.392;-4.472;2023-09-18T02:36:25;20.95;75.00
76239;SHT30;65043;48.392;-4.472;2023-09-18T02:38:50;20.92;75.21
76239;SHT30;65043;48.392;-4.472;2023-09-18T02:41:16;20.94;75.11
76239;SHT30;65043;48.392;-4.472;2023-09-18T02:43:41;20.87;75.40
76239;SHT30;65043;48.392;-4.472;2023-09-18T02:46:08;20.83;75.49
76239;SHT30;65043;48.392;-4.472;2023-09-18T02:48:34;20.84;75.54
76239;SHT30;65043;48.392;-4.472;2023-09-18T02:51:00;20.83;75.56
76239;SHT30;65043;48.392;-4.472;2023-09-18T02:53:26;20.84;75.73
76239;SHT30;65043;48.392;-4.472;2023-09-18T02:55:53;20.78;75.75
76239;SHT30;65043;48.392;-4.472;2023-09-18T02:58:19;20.83;75.92
76239;SHT30;65043;48.392;-4.472;2023-09-18T03:00:46;20.77;76.01
76239;SHT30;65043;48.392;-4.472;2023-09-18T03:03:12;20.74;75.98
76239;SHT30;65043;48.392;-4.472;2023-09-18T03:05:38;20.71;75.66
76239;SHT30;65043;48.392;-4.472;2023-09-18T03:08:04;20.71;75.49
76239;SHT30;65043;48.392;-4.472;2023-09-18T03:10:34;20.71;75.38
76239;SHT30;65043;48.392;-4.472;2023-09-18T03:13:01;20.71;75.44
76239;SHT30;65043;48.392;-4.472;2023-09-18T03:15:27;20.65;75.62
76239;SHT30;65043;48.392;-4.472;2023-09-18T03:17:52;20.60;75.73
76239;SHT30;65043;48.392;-4.472;2023-09-18T03:20:18;20.54;76.02
76239;SHT30;65043;48.392;-4.472;2023-09-18T03:22:43;20.50;76.17
76239;SHT30;65043;48.392;-4.472;2023-09-18T03:25:08;20.50;76.50
76239;SHT30;65043;48.392;-4.472;2023-09-18T03:27:35;20.50;76.57
76239;SHT30;65043;48.392;-4.472;2023-09-18T03:30:01;20.51;76.24
76239;SHT30;65043;48.392;-4.472;2023-09-18T03:32:26;20.47;76.17
76239;SHT30;65043;48.392;-4.472;2023-09-18T03:34:53;20.40;76.38
76239;SHT30;65043;48.392;-4.472;2023-09-18T03:37:19;20.43;76.48
76239;SHT30;65043;48.392;-4.472;2023-09-18T03:39:44;20.44;76.40
76239;SHT30;65043;48.392;-4.472;2023-09-18T03:42:10;20.40;75.90
76239;SHT30;65043;48.392;-4.472;2023-09-18T03:44:36;20.41;76.02
76239;SHT30;65043;48.392;-4.472;2023-09-18T03:47:01;20.39;76.22
76239;SHT30;65043;48.392;-4.472;2023-09-18T03:49:28;20.36;76.27
76239;SHT30;65043;48.392;-4.472;2023-09-18T03:51:53;20.34;76.59
76239;SHT30;65043;48.392;-4.472;2023-09-18T03:54:18;20.36;76.60
76239;SHT30;65043;48.392;-4.472;2023-09-18T03:56:44;20.36;76.66
76239;SHT30;65043;48.392;-4.472;2023-09-18T03:59:11;20.33;76.78
76239;SHT30;65043;48.392;-4.472;2023-09-18T04:01:36;20.34;76.92
76239;SHT30;65043;48.392;-4.472;2023-09-18T04:04:02;20.37;76.87
76239;SHT30;65043;48.392;-4.472;2023-09-18T04:06:36;20.39;76.92
76239;SHT30;65043;48.392;-4.472;2023-09-18T04:09:03;20.39;76.94
76239;SHT30;65043;48.392;-4.472;2023-09-18T04:11:29;20.39;76.84
76239;SHT30;65043;48.392;-4.472;2023-09-18T04:13:57;20.41;76.78
76239;SHT30;65043;48.392;-4.472;2023-09-18T04:16:23;20.36;76.89
76239;SHT30;65043;48.392;-4.472;2023-09-18T04:18:48;20.41;76.77
76239;SHT30;65043;48.392;-4.472;2023-09-18T04:21:14;20.34;76.78
76239;SHT30;65043;48.392;-4.472;2023-09-18T04:23:40;20.33;76.87
76239;SHT30;65043;48.392;-4.472;2023-09-18T04:26:06;20.30;76.96
76239;SHT30;65043;48.392;-4.472;2023-09-18T04:28:31;20.33;76.96
76239;SHT30;65043;48.392;-4.472;2023-09-18T04:30:56;20.29;76.96
76239;SHT30;65043;48.392;-4.472;2023-09-18T04:33:22;20.30;76.95
76239;SHT30;65043;48.392;-4.472;2023-09-18T04:35:47;20.26;76.96
76239;SHT30;65043;48.392;-4.472;2023-09-18T04:38:13;20.30;76.77
76239;SHT30;65043;48.392;-4.472;2023-09-18T04:40:42;20.27;76.87
76239;SHT30;65043;48.392;-4.472;2023-09-18T04:43:07;20.26;76.78
76239;SHT30;65043;48.392;-4.472;2023-09-18T04:45:33;20.22;76.71
76239;SHT30;65043;48.392;-4.472;2023-09-18T04:47:59;20.22;76.60
76239;SHT30;65043;48.392;-4.472;2023-09-18T04:50:24;20.26;76.62
76239;SHT30;65043;48.392;-4.472;2023-09-18T04:52:51;20.26;76.41
76239;SHT30;65043;48.392;-4.472;2023-09-18T04:55:19;20.26;76.54
76239;SHT30;65043;48.392;-4.472;2023-09-18T04:57:45;20.23;76.51
76239;SHT30;65043;48.392;-4.472;2023-09-18T05:00:10;20.25;76.35
76239;SHT30;65043;48.392;-4.472;2023-09-18T05:02:39;20.26;76.46
76239;SHT30;65043;48.392;-4.472;2023-09-18T05:05:07;20.29;76.41
76239;SHT30;65043;48.392;-4.472;2023-09-18T05:07:34;20.27;76.37
76239;SHT30;65043;48.392;-4.472;2023-09-18T05:09:59;20.27;76.42
76239;SHT30;65043;48.392;-4.472;2023-09-18T05:12:25;20.29;76.50
76239;SHT30;65043;48.392;-4.472;2023-09-18T05:14:50;20.33;76.40
76239;SHT30;65043;48.392;-4.472;2023-09-18T05:17:17;20.30;76.65
76239;SHT30;65043;48.392;-4.472;2023-09-18T05:19:43;20.32;76.50
76239;SHT30;65043;48.392;-4.472;2023-09-18T05:22:09;20.33;76.53
76239;SHT30;65043;48.392;-4.472;2023-09-18T05:24:38;20.34;76.35
76239;SHT30;65043;48.392;-4.472;2023-09-18T05:27:05;20.32;76.60
76239;SHT30;65043;48.392;-4.472;2023-09-18T05:29:32;20.34;76.60
76239;SHT30;65043;48.392;-4.472;2023-09-18T05:31:58;20.34;76.46
76239;SHT30;65043;48.392;-4.472;2023-09-18T05:34:23;20.34;76.68
76239;SHT30;65043;48.392;-4.472;2023-09-18T05:36:49;20.33;76.61
76239;SHT30;65043;48.392;-4.472;2023-09-18T05:39:15;20.34;76.70
76239;SHT30;65043;48.392;-4.472;2023-09-18T05:41:40;20.39;76.46
76239;SHT30;65043;48.392;-4.472;2023-09-18T05:44:07;20.39;76.45
76239;SHT30;65043;48.392;-4.472;2023-09-18T05:46:35;20.40;76.45
76239;SHT30;65043;48.392;-4.472;2023-09-18T05:49:01;20.41;76.33
76239;SHT30;65043;48.392;-4.472;2023-09-18T05:51:27;20.36;76.46
76239;SHT30;65043;48.392;-4.472;2023-09-18T05:53:52;20.36;76.38
76239;SHT30;65043;48.392;-4.472;2023-09-18T05:56:18;20.39;76.25
76239;SHT30;65043;48.392;-4.472;2023-09-18T05:58:43;20.37;76.35
76239;SHT30;65043;48.392;-4.472;2023-09-18T06:01:09;20.34;76.38
76239;SHT30;65043;48.392;-4.472;2023-09-18T06:03:34;20.32;76.24
76239;SHT30;65043;48.392;-4.472;2023-09-18T06:06:03;20.32;76.07
76239;SHT30;65043;48.392;-4.472;2023-09-18T06:08:29;20.33;76.04
76239;SHT30;65043;48.392;-4.472;2023-09-18T06:10:56;20.30;76.01
76239;SHT30;65043;48.392;-4.472;2023-09-18T06:13:23;20.29;76.08
76239;SHT30;65043;48.392;-4.472;2023-09-18T06:15:49;20.29;75.95
76239;SHT30;65043;48.392;-4.472;2023-09-18T06:18:18;20.26;75.93
76239;SHT30;65043;48.392;-4.472;2023-09-18T06:20:46;20.26;75.74
76239;SHT30;65043;48.392;-4.472;2023-09-18T06:23:14;20.26;75.69
76239;SHT30;65043;48.392;-4.472;2023-09-18T06:25:40;20.29;75.52
76239;SHT30;65043;48.392;-4.472;2023-09-18T06:28:06;20.29;75.45
76239;SHT30;65043;48.392;-4.472;2023-09-18T06:30:32;20.26;75.55
76239;SHT30;65043;48.392;-4.472;2023-09-18T06:33:01;20.23;75.30
76239;SHT30;65043;48.392;-4.472;2023-09-18T06:35:29;20.26;75.49
76239;SHT30;65043;48.392;-4.472;2023-09-18T06:37:55;20.26;75.43
76239;SHT30;65043;48.392;-4.472;2023-09-18T06:40:24;20.29;75.52
76239;SHT30;65043;48.392;-4.472;2023-09-18T06:42:49;20.29;75.44
76239;SHT30;65043;48.392;-4.472;2023-09-18T06:45:15;20.29;75.51
76239;SHT30;65043;48.392;-4.472;2023-09-18T06:47:43;20.29;75.03
76239;SHT30;65043;48.392;-4.472;2023-09-18T06:50:08;20.25;75.34
76239;SHT30;65043;48.392;-4.472;2023-09-18T06:52:37;20.27;75.29
76239;SHT30;65043;48.392;-4.472;2023-09-18T06:55:02;20.22;75.33
76239;SHT30;65043;48.392;-4.472;2023-09-18T06:57:28;20.22;75.45
76239;SHT30;65043;48.392;-4.472;2023-09-18T06:59:53;20.23;75.49
76239;SHT30;65043;48.392;-4.472;2023-09-18T07:02:19;20.20;75.28
76239;SHT30;65043;48.392;-4.472;2023-09-18T07:04:44;20.22;75.25
76239;SHT30;65043;48.392;-4.472;2023-09-18T07:07:14;20.19;75.41
76239;SHT30;65043;48.392;-4.472;2023-09-18T07:09:41;20.22;75.08
76239;SHT30;65043;48.392;-4.472;2023-09-18T07:12:08;20.22;75.03
76239;SHT30;65043;48.392;-4.472;2023-09-18T07:14:35;20.13;75.26
76239;SHT30;65043;48.392;-4.472;2023-09-18T07:17:00;20.12;75.67
76239;SHT30;65043;48.392;-4.472;2023-09-18T07:19:27;20.13;75.77
76239;SHT30;65043;48.392;-4.472;2023-09-18T07:21:52;20.17;75.92
76239;SHT30;65043;48.392;-4.472;2023-09-18T07:24:17;20.13;76.05
76239;SHT30;65043;48.392;-4.472;2023-09-18T07:26:49;20.12;75.76
76239;SHT30;65043;48.392;-4.472;2023-09-18T07:29:15;20.12;75.97
76239;SHT30;65043;48.392;-4.472;2023-09-18T07:31:46;20.09;76.10
76239;SHT30;65043;48.392;-4.472;2023-09-18T07:34:13;20.05;76.21
76239;SHT30;65043;48.392;-4.472;2023-09-18T07:36:38;20.06;75.85
76239;SHT30;65043;48.392;-4.472;2023-09-18T07:39:04;20.06;76.03
76239;SHT30;65043;48.392;-4.472;2023-09-18T07:41:30;20.08;76.19
76239;SHT30;65043;48.392;-4.472;2023-09-18T07:43:56;20.05;75.84
76239;SHT30;65043;48.392;-4.472;2023-09-18T07:46:23;20.08;76.13
76239;SHT30;65043;48.392;-4.472;2023-09-18T07:48:49;20.08;76.02
76239;SHT30;65043;48.392;-4.472;2023-09-18T07:51:14;20.08;76.11
76239;SHT30;65043;48.392;-4.472;2023-09-18T07:53:42;20.09;75.94
76239;SHT30;65043;48.392;-4.472;2023-09-18T07:56:08;20.09;75.95
76239;SHT30;65043;48.392;-4.472;2023-09-18T07:58:34;20.10;75.87
76239;SHT30;65043;48.392;-4.472;2023-09-18T08:01:03;20.12;75.99
76239;SHT30;65043;48.392;-4.472;2023-09-18T08:03:32;20.16;75.87
76239;SHT30;65043;48.392;-4.472;2023-09-18T08:05:58;20.15;75.66
76239;SHT30;65043;48.392;-4.472;2023-09-18T08:08:23;20.15;75.52
76239;SHT30;65043;48.392;-4.472;2023-09-18T08:10:51;20.16;75.42
76239;SHT30;65043;48.392;-4.472;2023-09-18T08:13:16;20.16;75.47
76239;SHT30;65043;48.392;-4.472;2023-09-18T08:15:42;20.13;75.21
76239;SHT30;65043;48.392;-4.472;2023-09-18T08:18:09;20.19;75.32
76239;SHT30;65043;48.392;-4.472;2023-09-18T08:20:39;20.19;75.37
76239;SHT30;65043;48.392;-4.472;2023-09-18T08:23:05;20.17;74.99
76239;SHT30;65043;48.392;-4.472;2023-09-18T08:25:31;20.15;75.09
76239;SHT30;65043;48.392;-4.472;2023-09-18T08:27:56;20.16;75.36
76239;SHT30;65043;48.392;-4.472;2023-09-18T08:30:22;20.16;75.18
76239;SHT30;65043;48.392;-4.472;2023-09-18T08:32:47;20.19;75.18
76239;SHT30;65043;48.392;-4.472;2023-09-18T08:35:13;20.19;75.42
76239;SHT30;65043;48.392;-4.472;2023-09-18T08:37:42;20.26;75.02
76239;SHT30;65043;48.392;-4.472;2023-09-18T08:40:12;20.25;74.70
76239;SHT30;65043;48.392;-4.472;2023-09-18T08:42:41;20.22;74.81
76239;SHT30;65043;48.392;-4.472;2023-09-18T08:45:09;20.26;74.87
76239;SHT30;65043;48.392;-4.472;2023-09-18T08:47:38;20.27;74.72
76239;SHT30;65043;48.392;-4.472;2023-09-18T08:50:05;20.25;74.32
76239;SHT30;65043;48.392;-4.472;2023-09-18T08:52:33;20.25;74.24
76239;SHT30;65043;48.392;-4.472;2023-09-18T08:54:58;20.23;73.43
76239;SHT30;65043;48.392;-4.472;2023-09-18T08:57:27;20.20;73.55
76239;SHT30;65043;48.392;-4.472;2023-09-18T08:59:54;20.19;73.56
76239;SHT30;65043;48.392;-4.472;2023-09-18T09:02:20;20.20;73.44
76239;SHT30;65043;48.392;-4.472;2023-09-18T09:04:47;20.23;73.33
76239;SHT30;65043;48.392;-4.472;2023-09-18T09:07:13;20.27;73.50
76239;SHT30;65043;48.392;-4.472;2023-09-18T09:09:41;20.33;72.62
76239;SHT30;65043;48.392;-4.472;2023-09-18T09:12:07;20.33;72.95
76239;SHT30;65043;48.392;-4.472;2023-09-18T09:14:33;20.34;72.24
76239;SHT30;65043;48.392;-4.472;2023-09-18T09:16:58;20.33;72.62
76239;SHT30;65043;48.392;-4.472;2023-09-18T09:21:55;20.32;72.20
76239;SHT30;65043;48.392;-4.472;2023-09-18T09:24:38;20.34;72.25
76239;SHT30;65043;48.392;-4.472;2023-09-18T09:27:04;20.40;71.99
76239;SHT30;65043;48.392;-4.472;2023-09-18T09:29:30;20.46;71.77
76239;SHT30;65043;48.392;-4.472;2023-09-18T09:31:56;20.50;70.65
76239;SHT30;65043;48.392;-4.472;2023-09-18T09:34:36;20.56;71.15
76239;SHT30;65043;48.392;-4.472;2023-09-18T09:37:02;20.53;70.68
76239;SHT30;65043;48.392;-4.472;2023-09-18T09:39:29;20.53;69.97
76239;SHT30;65043;48.392;-4.472;2023-09-18T09:42:00;20.53;69.40
76239;SHT30;65043;48.392;-4.472;2023-09-18T09:44:26;20.54;69.73
76239;SHT30;65043;48.392;-4.472;2023-09-18T09:46:52;20.56;69.68
76239;SHT30;65043;48.392;-4.472;2023-09-18T09:49:18;20.56;68.96
76239;SHT30;65043;48.392;-4.472;2023-09-18T09:51:45;20.54;68.45
76239;SHT30;65043;48.392;-4.472;2023-09-18T09:54:11;20.54;68.30
76239;SHT30;65043;48.392;-4.472;2023-09-18T09:56:47;20.53;67.40
76239;SHT30;65043;48.392;-4.472;2023-09-18T09:59:16;20.50;66.24
76239;SHT30;65043;48.392;-4.472;2023-09-18T10:01:47;20.48;66.96
76239;SHT30;65043;48.392;-4.472;2023-09-18T10:04:16;20.50;65.98
76239;SHT30;65043;48.392;-4.472;2023-09-18T10:07:06;20.46;65.27
76239;SHT30;65043;48.392;-4.472;2023-09-18T10:09:34;20.43;64.61
76239;SHT30;65043;48.392;-4.472;2023-09-18T10:12:02;20.43;65.81
76239;SHT30;65043;48.392;-4.472;2023-09-18T10:14:33;20.47;65.01
76239;SHT30;65043;48.392;-4.472;2023-09-18T10:17:11;20.48;64.36
76239;SHT30;65043;48.392;-4.472;2023-09-18T10:19:45;20.50;64.42
76239;SHT30;65043;48.392;-4.472;2023-09-18T10:22:37;20.51;64.16
76239;SHT30;65043;48.392;-4.472;2023-09-18T10:25:15;20.57;64.57
76239;SHT30;65043;48.392;-4.472;2023-09-18T10:27:45;20.63;63.87
76239;SHT30;65043;48.392;-4.472;2023-09-18T10:30:12;20.61;62.36
76239;SHT30;65043;48.392;-4.472;2023-09-18T10:32:40;20.60;62.45
76239;SHT30;65043;48.392;-4.472;2023-09-18T10:35:07;20.64;61.33
76239;SHT30;65043;48.392;-4.472;2023-09-18T10:37:37;20.64;60.57
76239;SHT30;65043;48.392;-4.472;2023-09-18T10:40:05;20.57;60.54
76239;SHT30;65043;48.392;-4.472;2023-09-18T10:42:35;20.56;61.21
76239;SHT30;65043;48.392;-4.472;2023-09-18T10:45:03;20.60;61.58
76239;SHT30;65043;48.392;-4.472;2023-09-18T10:47:32;20.64;61.82
76239;SHT30;65043;48.392;-4.472;2023-09-18T10:49:59;20.64;61.63
76239;SHT30;65043;48.392;-4.472;2023-09-18T10:52:26;20.75;61.49
76239;SHT30;65043;48.392;-4.472;2023-09-18T10:54:52;20.87;61.60
76239;SHT30;65043;48.392;-4.472;2023-09-18T10:57:18;20.85;61.28
76239;SHT30;65043;48.392;-4.472;2023-09-18T10:59:47;20.87;60.86
76239;SHT30;65043;48.392;-4.472;2023-09-18T11:02:17;20.94;60.82
76239;SHT30;65043;48.392;-4.472;2023-09-18T11:04:44;21.01;60.49
76239;SHT30;65043;48.392;-4.472;2023-09-18T11:07:22;21.04;60.39
76239;SHT30;65043;48.392;-4.472;2023-09-18T11:09:48;21.06;60.53
76239;SHT30;65043;48.392;-4.472;2023-09-18T11:12:15;21.09;60.75
76239;SHT30;65043;48.392;-4.472;2023-09-18T11:17:31;21.11;60.13
76239;SHT30;65043;48.392;-4.472;2023-09-18T11:20:06;21.14;59.96
76239;SHT30;65043;48.392;-4.472;2023-09-18T11:22:38;21.09;59.83
76239;SHT30;65043;48.392;-4.472;2023-09-18T11:27:55;21.15;59.59
76239;SHT30;65043;48.392;-4.472;2023-09-18T11:30:21;21.12;60.48
76239;SHT30;65043;48.392;-4.472;2023-09-18T11:32:47;21.06;59.69
76239;SHT30;65043;48.392;-4.472;2023-09-18T11:35:13;21.04;60.51
76239;SHT30;65043;48.392;-4.472;2023-09-18T11:37:39;21.01;60.06
76239;SHT30;65043;48.392;-4.472;2023-09-18T11:40:05;20.95;60.94
76239;SHT30;65043;48.392;-4.472;2023-09-18T11:42:33;20.98;61.66
76239;SHT30;65043;48.392;-4.472;2023-09-18T11:44:59;21.01;60.59
76239;SHT30;65043;48.392;-4.472;2023-09-18T11:47:25;21.04;61.34
76239;SHT30;65043;48.392;-4.472;2023-09-18T11:49:53;21.16;61.54
76239;SHT30;65043;48.392;-4.472;2023-09-18T11:52:24;21.16;59.61
76239;SHT30;65043;48.392;-4.472;2023-09-18T11:54:50;21.09;59.74
76239;SHT30;65043;48.392;-4.472;2023-09-18T11:57:17;21.16;61.05
76239;SHT30;65043;48.392;-4.472;2023-09-18T11:59:43;21.21;60.76
76239;SHT30;65043;48.392;-4.472;2023-09-18T12:02:11;21.19;59.47
76239;SHT30;65043;48.392;-4.472;2023-09-18T12:04:45;21.16;59.28
76239;SHT30;65043;48.392;-4.472;2023-09-18T12:07:13;21.21;59.81
76239;SHT30;65043;48.392;-4.472;2023-09-18T12:09:39;21.22;59.80
76239;SHT30;65043;48.392;-4.472;2023-09-18T12:12:08;21.28;60.18
76239;SHT30;65043;48.392;-4.472;2023-09-18T12:14:35;21.31;59.74
76239;SHT30;65043;48.392;-4.472;2023-09-18T12:17:01;21.36;60.15
76239;SHT30;65043;48.392;-4.472;2023-09-18T12:19:28;21.39;59.99
76239;SHT30;65043;48.392;-4.472;2023-09-18T12:21:56;21.41;59.26
76239;SHT30;65043;48.392;-4.472;2023-09-18T12:24:21;21.43;58.69
76239;SHT30;65043;48.392;-4.472;2023-09-18T12:26:48;21.46;58.65
76239;SHT30;65043;48.392;-4.472;2023-09-18T12:29:14;21.52;59.34
76239;SHT30;65043;48.392;-4.472;2023-09-18T12:31:40;21.60;59.38
76239;SHT30;65043;48.392;-4.472;2023-09-18T12:34:14;21.70;59.84
76239;SHT30;65043;48.392;-4.472;2023-09-18T12:36:42;21.72;58.22
76239;SHT30;65043;48.392;-4.472;2023-09-18T12:39:08;21.82;59.42
76239;SHT30;65043;48.392;-4.472;2023-09-18T12:41:35;21.92;58.55
76239;SHT30;65043;48.392;-4.472;2023-09-18T12:44:02;21.94;58.49
76239;SHT30;65043;48.392;-4.472;2023-09-18T12:46:29;21.93;58.40
76239;SHT30;65043;48.392;-4.472;2023-09-18T12:48:55;21.90;58.01
76239;SHT30;65043;48.392;-4.472;2023-09-18T12:51:29;21.80;58.14
76239;SHT30;65043;48.392;-4.472;2023-09-18T12:54:02;21.80;58.96
76239;SHT30;65043;48.392;-4.472;2023-09-18T12:56:31;21.80;58.84
76239;SHT30;65043;48.392;-4.472;2023-09-18T12:58:58;21.72;59.21
76239;SHT30;65043;48.392;-4.472;2023-09-18T13:01:24;21.72;59.36
76239;SHT30;65043;48.392;-4.472;2023-09-18T13:03:53;21.74;59.45
76239;SHT30;65043;48.392;-4.472;2023-09-18T13:06:20;21.74;58.90
76239;SHT30;65043;48.392;-4.472;2023-09-18T13:08:46;21.66;59.42
76239;SHT30;65043;48.392;-4.472;2023-09-18T13:11:12;21.62;59.70
76239;SHT30;65043;48.392;-4.472;2023-09-18T13:13:40;21.62;60.00
76239;SHT30;65043;48.392;-4.472;2023-09-18T13:16:07;21.54;59.80
76239;SHT30;65043;48.392;-4.472;2023-09-18T13:18:34;21.54;59.78
76239;SHT30;65043;48.392;-4.472;2023-09-18T13:21:00;21.56;59.86
76239;SHT30;65043;48.392;-4.472;2023-09-18T13:23:30;21.57;59.91
76239;SHT30;65043;48.392;-4.472;2023-09-18T13:25:59;21.54;59.64
76239;SHT30;65043;48.392;-4.472;2023-09-18T13:28:25;21.53;59.70
76239;SHT30;65043;48.392;-4.472;2023-09-18T13:30:51;21.52;59.89
76239;SHT30;65043;48.392;-4.472;2023-09-18T13:33:17;21.50;60.28
76239;SHT30;65043;48.392;-4.472;2023-09-18T13:35:45;21.54;60.47
76239;SHT30;65043;48.392;-4.472;2023-09-18T13:38:11;21.53;60.39
76239;SHT30;65043;48.392;-4.472;2023-09-18T13:40:41;21.50;60.37
76239;SHT30;65043;48.392;-4.472;2023-09-18T13:43:08;21.45;59.83
76239;SHT30;65043;48.392;-4.472;2023-09-18T13:45:34;21.36;60.19
76239;SHT30;65043;48.392;-4.472;2023-09-18T13:48:01;21.41;60.72
76239;SHT30;65043;48.392;-4.472;2023-09-18T13:50:27;21.52;60.43
76239;SHT30;65043;48.392;-4.472;2023-09-18T13:52:52;21.53;60.62
76239;SHT30;65043;48.392;-4.472;2023-09-18T13:55:19;21.53;60.89
76239;SHT30;65043;48.392;-4.472;2023-09-18T13:57:44;21.56;60.98
76239;SHT30;65043;48.392;-4.472;2023-09-18T14:00:10;21.60;60.81
76239;SHT30;65043;48.392;-4.472;2023-09-18T14:02:38;21.53;60.56
76239;SHT30;65043;48.392;-4.472;2023-09-18T14:05:04;21.52;60.22
76239;SHT30;65043;48.392;-4.472;2023-09-18T14:07:30;21.50;60.48
76239;SHT30;65043;48.392;-4.472;2023-09-18T14:09:56;21.43;60.55
76239;SHT30;65043;48.392;-4.472;2023-09-18T14:12:22;21.43;60.93
76239;SHT30;65043;48.392;-4.472;2023-09-18T14:14:48;21.36;60.67
76239;SHT30;65043;48.392;-4.472;2023-09-18T14:17:13;21.28;61.26
76239;SHT30;65043;48.392;-4.472;2023-09-18T14:19:42;21.25;61.67
76239;SHT30;65043;48.392;-4.472;2023-09-18T14:22:08;21.15;62.38
76239;SHT30;65043;48.392;-4.472;2023-09-18T14:24:33;21.05;64.61
76239;SHT30;65043;48.392;-4.472;2023-09-18T14:27:03;20.88;66.72
76239;SHT30;65043;48.392;-4.472;2023-09-18T14:29:29;20.75;68.72
76239;SHT30;65043;48.392;-4.472;2023-09-18T14:31:57;20.65;69.47
76239;SHT30;65043;48.392;-4.472;2023-09-18T14:34:22;20.63;70.49
76239;SHT30;65043;48.392;-4.472;2023-09-18T14:36:48;20.57;70.68
76239;SHT30;65043;48.392;-4.472;2023-09-18T14:39:13;20.54;70.79
76239;SHT30;65043;48.392;-4.472;2023-09-18T14:41:39;20.48;70.75
76239;SHT30;65043;48.392;-4.472;2023-09-18T14:44:06;20.44;70.81
76239;SHT30;65043;48.392;-4.472;2023-09-18T14:46:34;20.41;71.44
76239;SHT30;65043;48.392;-4.472;2023-09-18T14:49:00;20.40;71.73
76239;SHT30;65043;48.392;-4.472;2023-09-18T14:51:26;20.41;72.14
76239;SHT30;65043;48.392;-4.472;2023-09-18T14:53:55;20.39;71.20
76239;SHT30;65043;48.392;-4.472;2023-09-18T14:56:20;20.37;71.49
76239;SHT30;65043;48.392;-4.472;2023-09-18T14:58:46;20.39;71.94
76239;SHT30;65043;48.392;-4.472;2023-09-18T15:01:11;20.44;71.79
76239;SHT30;65043;48.392;-4.472;2023-09-18T15:03:37;20.50;72.07
76239;SHT30;65043;48.392;-4.472;2023-09-18T15:06:03;20.65;71.72
76239;SHT30;65043;48.392;-4.472;2023-09-18T15:08:28;20.74;71.24
76239;SHT30;65043;48.392;-4.472;2023-09-18T15:10:54;20.84;71.10
76239;SHT30;65043;48.392;-4.472;2023-09-18T15:13:20;20.98;71.24
76239;SHT30;65043;48.392;-4.472;2023-09-18T15:15:46;21.11;70.09
76239;SHT30;65043;48.392;-4.472;2023-09-18T15:18:12;21.19;69.40
76239;SHT30;65043;48.392;-4.472;2023-09-18T15:20:37;21.25;69.08
76239;SHT30;65043;48.392;-4.472;2023-09-18T15:23:05;21.24;68.67